createdAt,value
2022-08-03T00:00:00.322Z,22.1
2022-08-03T00:01:09.917Z,22
2022-08-03T00:02:01.300Z,22
2022-08-03T00:03:00.775Z,22
2022-08-03T00:04:00.483Z,22
2022-08-03T00:05:00.450Z,22
2022-08-03T00:06:11.195Z,22
2022-08-03T00:07:01.118Z,22
2022-08-03T00:08:01.463Z,22
2022-08-03T00:09:00.772Z,22
2022-08-03T00:10:00.439Z,21.9
2022-08-03T00:11:15.111Z,21.9
2022-08-03T00:12:01.858Z,21.9
2022-08-03T00:13:00.776Z,21.9
2022-08-03T00:14:00.454Z,21.9
2022-08-03T00:15:00.160Z,21.8
2022-08-03T00:15:59.857Z,21.8
2022-08-03T00:17:02.916Z,21.8
2022-08-03T00:18:00.764Z,21.8
2022-08-03T00:19:00.783Z,21.8
2022-08-03T00:20:01.162Z,21.8
2022-08-03T00:21:00.917Z,21.7
2022-08-03T00:22:00.602Z,21.7
2022-08-03T00:23:00.312Z,21.8
2022-08-03T00:24:00.313Z,21.8
2022-08-03T00:25:00.018Z,21.7
2022-08-03T00:25:59.824Z,21.8
2022-08-03T00:27:01.707Z,21.7
2022-08-03T00:28:02.412Z,21.7
2022-08-03T00:29:01.364Z,21.8
2022-08-03T00:30:00.784Z,21.7
2022-08-03T00:31:00.535Z,21.7
2022-08-03T00:32:00.755Z,21.7
2022-08-03T00:33:00.587Z,21.6
2022-08-03T00:34:03.289Z,21.6
2022-08-03T00:35:01.237Z,21.6
2022-08-03T00:36:01.328Z,21.6
2022-08-03T00:37:00.662Z,21.6
2022-08-03T00:38:01.107Z,21.6
2022-08-03T00:39:01.115Z,21.6
2022-08-03T00:40:00.838Z,21.6
2022-08-03T00:41:01.050Z,21.6
2022-08-03T00:42:00.700Z,21.6
2022-08-03T00:43:00.333Z,21.6
2022-08-03T00:44:00.069Z,21.6
2022-08-03T00:44:59.815Z,21.6
2022-08-03T00:46:01.580Z,21.6
2022-08-03T00:47:01.292Z,21.6
2022-08-03T00:48:00.989Z,21.6
2022-08-03T00:49:00.747Z,21.6
2022-08-03T00:50:00.481Z,21.6
2022-08-03T00:51:00.212Z,21.6
2022-08-03T00:52:00.613Z,21.6
2022-08-03T00:53:00.870Z,21.6
2022-08-03T00:54:00.607Z,21.6
2022-08-03T00:55:00.244Z,21.6
2022-08-03T00:56:00.080Z,21.6
2022-08-03T00:57:00.586Z,21.6
2022-08-03T00:58:00.318Z,21.5
2022-08-03T00:59:00.053Z,21.5
2022-08-03T00:59:59.836Z,21.5
2022-08-03T01:01:02.454Z,21.5
2022-08-03T01:02:00.985Z,21.4
2022-08-03T01:03:00.674Z,21.3
2022-08-03T01:04:00.316Z,21.3
2022-08-03T01:04:59.972Z,21.2
2022-08-03T01:05:59.775Z,21.1
2022-08-03T01:07:02.362Z,21.1
2022-08-03T01:08:02.447Z,21.1
2022-08-03T01:09:01.173Z,21.1
2022-08-03T01:10:00.890Z,21.1
2022-08-03T01:11:00.523Z,21.1
2022-08-03T01:12:01.880Z,21
2022-08-03T01:13:01.769Z,21
2022-08-03T01:14:17.918Z,21
2022-08-03T01:15:01.623Z,21
2022-08-03T01:16:00.931Z,20.9
2022-08-03T01:17:00.761Z,20.8
2022-08-03T01:18:00.609Z,20.8
2022-08-03T01:19:00.389Z,20.8
2022-08-03T01:20:00.279Z,20.8
2022-08-03T01:21:01.325Z,20.8
2022-08-03T01:22:01.118Z,20.8
2022-08-03T01:23:01.838Z,20.8
2022-08-03T01:24:01.349Z,20.9
2022-08-03T01:25:01.123Z,20.9
2022-08-03T01:26:00.828Z,20.9
2022-08-03T01:27:00.520Z,20.9
2022-08-03T01:28:01.459Z,21
2022-08-03T01:29:01.055Z,21
2022-08-03T01:30:00.707Z,21
2022-08-03T01:31:00.450Z,21
2022-08-03T01:32:53.268Z,21
2022-08-03T01:33:02.025Z,20.9
2022-08-03T01:34:00.086Z,20.8
2022-08-03T01:34:59.745Z,20.8
2022-08-03T01:35:59.662Z,20.8
2022-08-03T01:37:01.410Z,20.8
2022-08-03T01:38:00.700Z,20.7
2022-08-03T01:39:00.462Z,20.7
2022-08-03T01:40:00.145Z,20.7
2022-08-03T01:40:59.897Z,20.7
2022-08-03T01:42:04.173Z,20.7
2022-08-03T01:43:00.635Z,20.7
2022-08-03T01:44:27.464Z,20.8
2022-08-03T01:45:01.377Z,20.8
2022-08-03T01:46:00.648Z,20.8
2022-08-03T01:47:08.128Z,20.8
2022-08-03T01:48:01.320Z,20.8
2022-08-03T01:49:00.853Z,20.8
2022-08-03T01:50:01.052Z,20.8
2022-08-03T01:51:00.712Z,20.9
2022-08-03T01:52:11.408Z,20.9
2022-08-03T01:53:02.127Z,20.9
2022-08-03T01:54:00.536Z,20.9
2022-08-03T01:55:00.376Z,20.9
2022-08-03T01:56:00.011Z,20.9
2022-08-03T01:56:59.806Z,20.9
2022-08-03T01:58:05.364Z,20.8
2022-08-03T01:59:01.462Z,20.8
2022-08-03T02:00:01.166Z,20.8
2022-08-03T02:01:01.125Z,20.8
2022-08-03T02:02:15.211Z,20.8
2022-08-03T02:03:01.204Z,20.9
2022-08-03T02:04:01.325Z,20.8
2022-08-03T02:05:00.880Z,20.8
2022-08-03T02:07:02.302Z,20.8
2022-08-03T02:07:03.438Z,20.8
2022-08-03T02:08:02.377Z,20.8
2022-08-03T02:09:01.317Z,20.8
2022-08-03T02:10:01.004Z,20.8
2022-08-03T02:11:00.706Z,20.7
2022-08-03T02:12:00.529Z,20.7
2022-08-03T02:13:00.241Z,20.6
2022-08-03T02:13:59.944Z,20.6
2022-08-03T02:14:59.928Z,20.6
2022-08-03T02:15:59.847Z,20.5
2022-08-03T02:17:02.503Z,20.5
2022-08-03T02:18:00.759Z,20.4
2022-08-03T02:19:00.406Z,20.4
2022-08-03T02:20:00.242Z,20.3
2022-08-03T02:20:59.953Z,20.3
2022-08-03T02:22:01.329Z,20.3
2022-08-03T02:23:00.696Z,20.3
2022-08-03T02:24:00.870Z,20.3
2022-08-03T02:25:00.514Z,20.3
2022-08-03T02:26:00.215Z,20.3
2022-08-03T02:27:00.711Z,20.3
2022-08-03T02:28:00.732Z,20.4
2022-08-03T02:29:00.436Z,20.3
2022-08-03T02:30:00.667Z,20.3
2022-08-03T02:31:00.345Z,20.3
2022-08-03T02:32:00.034Z,20.3
2022-08-03T02:32:59.734Z,20.3
2022-08-03T02:34:01.408Z,20.3
2022-08-03T02:35:01.361Z,20.3
2022-08-03T02:36:01.004Z,20.3
2022-08-03T02:37:00.672Z,20.3
2022-08-03T02:38:00.389Z,20.3
2022-08-03T02:39:00.086Z,20.3
2022-08-03T02:40:00.710Z,20.3
2022-08-03T02:41:00.360Z,20.3
2022-08-03T02:42:00.104Z,20.3
2022-08-03T02:43:00.793Z,20.3
2022-08-03T02:44:06.959Z,20.3
2022-08-03T02:45:01.485Z,20.3
2022-08-03T02:46:00.767Z,20.3
2022-08-03T02:47:00.438Z,20.4
2022-08-03T02:48:00.185Z,20.4
2022-08-03T02:49:00.003Z,20.4
2022-08-03T02:50:01.236Z,20.4
2022-08-03T02:51:02.219Z,20.3
2022-08-03T02:52:00.983Z,20.3
2022-08-03T02:53:00.798Z,20.2
2022-08-03T02:54:00.487Z,20.2
2022-08-03T02:55:00.142Z,20.1
2022-08-03T02:56:00.510Z,20.1
2022-08-03T02:57:00.258Z,20.1
2022-08-03T02:58:01.685Z,20.1
2022-08-03T02:59:01.426Z,20.1
2022-08-03T03:00:01.451Z,20.1
2022-08-03T03:01:01.722Z,20.1
2022-08-03T03:02:01.468Z,20
2022-08-03T03:03:00.788Z,20.1
2022-08-03T03:04:00.518Z,20
2022-08-03T03:05:52.043Z,20.1
2022-08-03T03:06:00.863Z,20
2022-08-03T03:07:01.816Z,20
2022-08-03T03:08:02.126Z,20
2022-08-03T03:09:01.426Z,20
2022-08-03T03:10:00.802Z,20
2022-08-03T03:11:00.592Z,19.9
2022-08-03T03:12:00.303Z,19.9
2022-08-03T03:12:59.992Z,19.9
2022-08-03T03:13:59.713Z,19.9
2022-08-03T03:15:01.456Z,19.9
2022-08-03T03:16:01.158Z,19.8
2022-08-03T03:17:00.636Z,19.8
2022-08-03T03:18:00.338Z,19.8
2022-08-03T03:19:00.773Z,19.8
2022-08-03T03:20:00.455Z,19.7
2022-08-03T03:21:00.157Z,19.7
2022-08-03T03:21:59.841Z,19.6
2022-08-03T03:23:03.315Z,19.6
2022-08-03T03:24:02.364Z,19.6
2022-08-03T03:25:01.110Z,19.6
2022-08-03T03:26:00.795Z,19.6
2022-08-03T03:27:00.449Z,19.6
2022-08-03T03:28:02.275Z,19.6
2022-08-03T03:29:01.340Z,19.6
2022-08-03T03:30:01.002Z,19.7
2022-08-03T03:31:00.673Z,19.7
2022-08-03T03:32:00.434Z,19.6
2022-08-03T03:33:01.542Z,19.6
2022-08-03T03:34:00.640Z,19.6
2022-08-03T03:35:00.278Z,19.6
2022-08-03T03:35:59.962Z,19.6
2022-08-03T03:36:59.819Z,19.6
2022-08-03T03:38:05.633Z,19.6
2022-08-03T03:39:16.115Z,19.6
2022-08-03T03:40:01.411Z,19.6
2022-08-03T03:41:00.901Z,19.6
2022-08-03T03:42:00.567Z,19.5
2022-08-03T03:43:08.104Z,19.5
2022-08-03T03:44:01.240Z,19.5
2022-08-03T03:45:01.320Z,19.5
2022-08-03T03:46:01.069Z,19.5
2022-08-03T03:47:00.746Z,19.6
2022-08-03T03:48:11.094Z,19.5
2022-08-03T03:49:01.498Z,19.5
2022-08-03T03:50:00.769Z,19.6
2022-08-03T03:51:00.449Z,19.6
2022-08-03T03:52:00.155Z,19.5
2022-08-03T03:53:14.940Z,19.6
2022-08-03T03:54:01.078Z,19.6
2022-08-03T03:55:01.513Z,19.5
2022-08-03T03:56:02.417Z,19.6
2022-08-03T03:57:01.217Z,19.6
2022-08-03T03:58:15.571Z,19.5
2022-08-03T03:59:01.028Z,19.6
2022-08-03T04:00:00.730Z,19.5
2022-08-03T04:01:00.727Z,19.6
2022-08-03T04:02:00.525Z,19.6
2022-08-03T04:03:00.220Z,19.6
2022-08-03T04:04:00.164Z,19.6
2022-08-03T04:04:59.838Z,19.6
2022-08-03T04:06:02.314Z,19.6
2022-08-03T04:07:00.735Z,19.6
2022-08-03T04:08:00.577Z,19.6
2022-08-03T04:09:00.379Z,19.7
2022-08-03T04:10:14.048Z,19.8
2022-08-03T04:11:01.203Z,19.8
2022-08-03T04:12:00.697Z,19.8
2022-08-03T04:13:00.391Z,19.8
2022-08-03T04:14:01.786Z,19.8
2022-08-03T04:15:01.127Z,19.8
2022-08-03T04:16:00.952Z,19.8
2022-08-03T04:17:00.709Z,19.8
2022-08-03T04:18:00.418Z,19.8
2022-08-03T04:19:00.264Z,19.8
2022-08-03T04:19:59.914Z,19.8
2022-08-03T04:20:59.656Z,19.9
2022-08-03T04:22:01.367Z,20
2022-08-03T04:23:01.171Z,20
2022-08-03T04:24:00.987Z,20.1
2022-08-03T04:25:00.678Z,20.1
2022-08-03T04:26:00.495Z,20.2
2022-08-03T04:27:00.149Z,20.3
2022-08-03T04:28:07.965Z,20.4
2022-08-03T04:29:00.843Z,20.5
2022-08-03T04:30:00.646Z,20.5
2022-08-03T04:31:00.451Z,20.6
2022-08-03T04:32:00.388Z,20.6
2022-08-03T04:33:00.757Z,20.7
2022-08-03T04:34:01.330Z,20.8
2022-08-03T04:35:00.591Z,20.9
2022-08-03T04:36:02.734Z,20.9
2022-08-03T04:37:01.540Z,20.9
2022-08-03T04:38:01.786Z,21
2022-08-03T04:39:02.666Z,21
2022-08-03T04:40:02.531Z,21.1
2022-08-03T04:41:01.341Z,21.1
2022-08-03T04:42:16.843Z,21.2
2022-08-03T04:43:01.277Z,21.3
2022-08-03T04:44:01.016Z,21.3
2022-08-03T04:45:01.820Z,21.3
2022-08-03T04:46:00.924Z,21.4
2022-08-03T04:47:00.610Z,21.4
2022-08-03T04:48:02.929Z,21.5
2022-08-03T04:49:01.818Z,21.5
2022-08-03T04:50:00.530Z,21.5
2022-08-03T04:51:00.214Z,21.5
2022-08-03T04:51:59.924Z,21.6
2022-08-03T04:52:59.822Z,21.6
2022-08-03T04:54:00.176Z,21.6
2022-08-03T04:54:59.874Z,21.6
2022-08-03T04:56:01.407Z,21.5
2022-08-03T04:57:00.984Z,21.5
2022-08-03T04:58:00.682Z,21.4
2022-08-03T04:59:00.429Z,21.4
2022-08-03T05:00:03.142Z,21.3
2022-08-03T05:01:01.471Z,21.3
2022-08-03T05:02:00.873Z,21.2
2022-08-03T05:03:00.728Z,21.2
2022-08-03T05:04:01.225Z,21.1
2022-08-03T05:05:01.056Z,21.1
2022-08-03T05:06:09.461Z,21.1
2022-08-03T05:07:11.495Z,21.1
2022-08-03T05:08:00.962Z,21.1
2022-08-03T05:09:03.104Z,21.1
2022-08-03T05:10:03.148Z,21.1
2022-08-03T05:11:00.990Z,21.2
2022-08-03T05:12:01.827Z,21.2
2022-08-03T05:13:00.680Z,21.2
2022-08-03T05:14:05.516Z,21.3
2022-08-03T05:15:01.371Z,21.3
2022-08-03T05:16:01.051Z,21.5
2022-08-03T05:17:01.120Z,21.6
2022-08-03T05:18:00.883Z,21.8
2022-08-03T05:19:09.848Z,21.9
2022-08-03T05:20:00.470Z,22.1
2022-08-03T05:21:00.142Z,22.3
2022-08-03T05:21:59.931Z,22.5
2022-08-03T05:22:59.836Z,22.7
2022-08-03T05:24:11.455Z,23
2022-08-03T05:25:01.579Z,23.1
2022-08-03T05:26:01.298Z,23.2
2022-08-03T05:27:01.038Z,23.3
2022-08-03T05:28:00.817Z,23.4
2022-08-03T05:29:13.363Z,23.5
2022-08-03T05:30:29.867Z,23.6
2022-08-03T05:31:01.240Z,23.8
2022-08-03T05:32:04.872Z,24
2022-08-03T05:33:00.720Z,24.3
2022-08-03T05:34:15.765Z,24.5
2022-08-03T05:35:01.462Z,24.6
2022-08-03T05:36:04.151Z,24.7
2022-08-03T05:37:01.171Z,25
2022-08-03T05:38:00.926Z,25.2
2022-08-03T05:39:15.700Z,25.4
2022-08-03T05:40:00.557Z,25.5
2022-08-03T05:41:21.247Z,25.5
2022-08-03T05:42:01.292Z,25.6
2022-08-03T05:43:00.751Z,25.6
2022-08-03T05:44:00.487Z,25.5
2022-08-03T05:45:00.210Z,25.4
2022-08-03T05:46:12.520Z,25.3
2022-08-03T05:47:01.245Z,25.1
2022-08-03T05:48:00.990Z,25
2022-08-03T05:49:00.766Z,24.8
2022-08-03T05:50:00.517Z,24.6
2022-08-03T05:51:00.618Z,24.6
2022-08-03T05:52:15.640Z,24.5
2022-08-03T05:53:01.287Z,24.5
2022-08-03T05:54:00.574Z,24.5
2022-08-03T05:55:00.211Z,24.7
2022-08-03T05:56:02.735Z,25
2022-08-03T05:57:01.178Z,25.2
2022-08-03T05:58:01.100Z,25.4
2022-08-03T05:59:11.528Z,25.6
2022-08-03T06:00:00.903Z,25.6
2022-08-03T06:01:00.821Z,25.7
2022-08-03T06:02:00.729Z,25.6
2022-08-03T06:03:00.558Z,25.8
2022-08-03T06:04:00.354Z,25.9
2022-08-03T06:05:00.067Z,25.9
2022-08-03T06:06:00.576Z,26
2022-08-03T06:07:00.525Z,26.2
2022-08-03T06:08:00.237Z,26.4
2022-08-03T06:08:59.937Z,26.7
2022-08-03T06:10:36.386Z,27
2022-08-03T06:11:00.672Z,27.3
2022-08-03T06:12:00.366Z,27.6
2022-08-03T06:13:00.164Z,27.8
2022-08-03T06:13:59.869Z,28.1
2022-08-03T06:14:59.778Z,28.2
2022-08-03T06:16:02.344Z,28.4
2022-08-03T06:17:02.311Z,28.5
2022-08-03T06:18:02.249Z,28.4
2022-08-03T06:19:01.133Z,28.5
2022-08-03T06:20:00.881Z,28.5
2022-08-03T06:21:15.159Z,28.5
2022-08-03T06:22:01.342Z,28.4
2022-08-03T06:23:03.035Z,28.3
2022-08-03T06:24:01.086Z,28.3
2022-08-03T06:25:04.786Z,28.3
2022-08-03T06:26:00.977Z,28.2
2022-08-03T06:27:00.692Z,28.1
2022-08-03T06:28:00.367Z,28.1
2022-08-03T06:29:00.006Z,28
2022-08-03T06:30:01.320Z,28
2022-08-03T06:31:01.175Z,27.9
2022-08-03T06:32:00.906Z,27.8
2022-08-03T06:33:00.578Z,27.7
2022-08-03T06:34:30.808Z,27.6
2022-08-03T06:35:01.330Z,27.5
2022-08-03T06:36:01.020Z,27.5
2022-08-03T06:37:02.354Z,27.3
2022-08-03T06:38:00.884Z,27
2022-08-03T06:39:01.221Z,26.8
2022-08-03T06:40:00.967Z,26.5
2022-08-03T06:41:00.755Z,26.3
2022-08-03T06:42:00.391Z,26
2022-08-03T06:43:00.260Z,25.8
2022-08-03T06:44:03.592Z,25.6
2022-08-03T06:45:00.975Z,25.5
2022-08-03T06:46:00.713Z,25.3
2022-08-03T06:47:00.619Z,25.3
2022-08-03T06:48:00.309Z,25.1
2022-08-03T06:49:00.039Z,25.1
2022-08-03T06:50:17.107Z,25
2022-08-03T06:51:00.823Z,24.8
2022-08-03T06:52:04.538Z,24.8
2022-08-03T06:53:01.561Z,24.8
2022-08-03T06:54:00.869Z,24.8
2022-08-03T06:55:00.635Z,24.8
2022-08-03T06:56:00.468Z,24.7
2022-08-03T06:57:00.137Z,24.8
2022-08-03T06:58:03.221Z,24.8
2022-08-03T06:59:00.977Z,24.8
2022-08-03T07:00:08.343Z,24.8
2022-08-03T07:01:00.960Z,24.8
2022-08-03T07:02:00.694Z,24.8
2022-08-03T07:03:01.930Z,24.8
2022-08-03T07:04:01.565Z,24.8
2022-08-03T07:05:00.601Z,24.8
2022-08-03T07:06:00.628Z,24.8
2022-08-03T07:07:00.311Z,24.9
2022-08-03T07:07:59.959Z,24.9
2022-08-03T07:08:59.786Z,24.9
2022-08-03T07:10:02.148Z,25
2022-08-03T07:11:01.618Z,25
2022-08-03T07:12:01.129Z,25
2022-08-03T07:13:00.873Z,25.1
2022-08-03T07:14:00.639Z,25.1
2022-08-03T07:15:02.827Z,25.1
2022-08-03T07:16:01.326Z,25.3
2022-08-03T07:17:01.008Z,25.3
2022-08-03T07:18:03.078Z,25.4
2022-08-03T07:19:01.423Z,25.5
2022-08-03T07:20:05.546Z,25.5
2022-08-03T07:21:01.127Z,25.5
2022-08-03T07:22:02.181Z,25.5
2022-08-03T07:23:00.831Z,25.4
2022-08-03T07:24:00.537Z,25.4
2022-08-03T07:25:09.515Z,25.4
2022-08-03T07:26:02.427Z,25.3
2022-08-03T07:27:01.361Z,25.3
2022-08-03T07:28:01.009Z,25.3
2022-08-03T07:29:01.263Z,25.3
2022-08-03T07:30:12.867Z,25.3
2022-08-03T07:31:01.205Z,25.3
2022-08-03T07:32:00.757Z,25.3
2022-08-03T07:33:00.407Z,25.3
2022-08-03T07:34:00.108Z,25.3
2022-08-03T07:35:24.659Z,25.4
2022-08-03T07:36:00.918Z,25.4
2022-08-03T07:37:00.660Z,25.5
2022-08-03T07:38:00.393Z,25.6
2022-08-03T07:39:00.119Z,25.7
2022-08-03T07:39:59.790Z,25.7
2022-08-03T07:41:02.401Z,25.8
2022-08-03T07:42:01.287Z,25.8
2022-08-03T07:43:00.967Z,25.8
2022-08-03T07:44:00.652Z,25.8
2022-08-03T07:45:00.796Z,25.8
2022-08-03T07:46:00.470Z,25.8
2022-08-03T07:47:00.167Z,25.9
2022-08-03T07:48:01.216Z,26
2022-08-03T07:49:01.087Z,26
2022-08-03T07:50:00.809Z,26
2022-08-03T07:51:00.499Z,26.1
2022-08-03T07:52:00.244Z,26.1
2022-08-03T07:52:59.912Z,26.1
2022-08-03T07:53:59.675Z,26
2022-08-03T07:55:02.427Z,26
2022-08-03T07:56:01.413Z,26
2022-08-03T07:57:00.755Z,26
2022-08-03T07:58:03.199Z,26.1
2022-08-03T07:59:02.412Z,26.1
2022-08-03T08:00:02.156Z,26.3
2022-08-03T08:01:01.530Z,26.4
2022-08-03T08:02:00.785Z,26.5
2022-08-03T08:03:00.546Z,26.5
2022-08-03T08:04:00.499Z,26.6
2022-08-03T08:05:05.292Z,26.6
2022-08-03T08:06:01.759Z,26.8
2022-08-03T08:07:01.187Z,26.9
2022-08-03T08:08:00.933Z,26.9
2022-08-03T08:09:00.632Z,27
2022-08-03T08:10:00.360Z,27
2022-08-03T08:11:00.131Z,27
2022-08-03T08:11:59.853Z,27
2022-08-03T08:12:59.602Z,27
2022-08-03T08:14:01.284Z,27
2022-08-03T08:15:00.985Z,27.1
2022-08-03T08:16:00.673Z,27.1
2022-08-03T08:17:04.368Z,27.1
2022-08-03T08:18:00.698Z,27.1
2022-08-03T08:19:00.429Z,27.2
2022-08-03T08:20:00.249Z,27.3
2022-08-03T08:21:01.117Z,27.3
2022-08-03T08:22:02.415Z,27.3
2022-08-03T08:23:02.001Z,27.3
2022-08-03T08:24:00.864Z,27.3
2022-08-03T08:25:01.285Z,27.4
2022-08-03T08:26:00.835Z,27.4
2022-08-03T08:27:00.545Z,27.4
2022-08-03T08:28:31.322Z,27.5
2022-08-03T08:29:01.210Z,27.5
2022-08-03T08:30:10.171Z,27.6
2022-08-03T08:31:00.981Z,27.6
2022-08-03T08:32:00.877Z,27.6
2022-08-03T08:33:01.070Z,27.6
2022-08-03T08:34:04.025Z,27.7
2022-08-03T08:35:00.813Z,27.7
2022-08-03T08:36:00.459Z,27.7
2022-08-03T08:37:00.161Z,27.8
2022-08-03T08:37:59.801Z,27.8
2022-08-03T08:39:01.281Z,27.8
2022-08-03T08:40:01.042Z,27.8
2022-08-03T08:41:01.365Z,27.8
2022-08-03T08:42:01.046Z,27.8
2022-08-03T08:43:00.868Z,27.8
2022-08-03T08:44:00.858Z,27.8
2022-08-03T08:45:00.811Z,27.8
2022-08-03T08:46:00.565Z,27.7
2022-08-03T08:47:00.278Z,27.6
2022-08-03T08:48:02.642Z,27.6
2022-08-03T08:49:04.816Z,27.6
2022-08-03T08:50:10.173Z,27.6
2022-08-03T08:51:00.978Z,27.5
2022-08-03T08:52:01.656Z,27.5
2022-08-03T08:53:00.913Z,27.5
2022-08-03T08:54:00.623Z,27.5
2022-08-03T08:55:00.373Z,27.6
2022-08-03T08:56:00.910Z,27.7
2022-08-03T08:57:01.349Z,27.9
2022-08-03T08:58:00.921Z,28
2022-08-03T08:59:00.643Z,28
2022-08-03T09:00:00.359Z,28
2022-08-03T09:01:00.335Z,28.1
2022-08-03T09:02:00.151Z,28.1
2022-08-03T09:02:59.843Z,28.1
2022-08-03T09:03:59.850Z,28.1
2022-08-03T09:05:06.907Z,28.1
2022-08-03T09:06:00.788Z,28
2022-08-03T09:07:19.284Z,28
2022-08-03T09:08:01.836Z,28
2022-08-03T09:09:00.916Z,28
2022-08-03T09:10:10.998Z,28
2022-08-03T09:11:01.183Z,28.1
2022-08-03T09:12:14.582Z,28.2
2022-08-03T09:13:00.849Z,28.3
2022-08-03T09:14:00.564Z,28.2
2022-08-03T09:15:16.551Z,28.1
2022-08-03T09:16:01.697Z,28.1
2022-08-03T09:17:00.973Z,28.1
2022-08-03T09:18:00.876Z,28.1
2022-08-03T09:19:00.588Z,28.1
2022-08-03T09:20:03.553Z,28.1
2022-08-03T09:21:29.630Z,28.1
2022-08-03T09:22:01.936Z,28.1
2022-08-03T09:23:00.710Z,28.2
2022-08-03T09:24:03.200Z,28.2
2022-08-03T09:25:23.491Z,28.2
2022-08-03T09:26:13.791Z,28.3
2022-08-03T09:27:00.928Z,28.3
2022-08-03T09:28:00.636Z,28.3
2022-08-03T09:29:04.877Z,28.5
2022-08-03T09:30:00.542Z,28.6
2022-08-03T09:31:14.230Z,28.6
2022-08-03T09:32:01.172Z,28.6
2022-08-03T09:33:00.869Z,28.6
2022-08-03T09:34:00.574Z,28.6
2022-08-03T09:35:00.290Z,28.8
2022-08-03T09:36:00.026Z,28.8
2022-08-03T09:36:59.707Z,28.8
2022-08-03T09:38:12.200Z,28.8
2022-08-03T09:39:02.488Z,28.8
2022-08-03T09:40:01.017Z,28.8
2022-08-03T09:41:01.146Z,28.8
2022-08-03T09:42:00.952Z,28.8
2022-08-03T09:43:00.625Z,28.9
2022-08-03T09:44:00.313Z,28.9
2022-08-03T09:45:00.029Z,28.9
2022-08-03T09:45:59.829Z,28.8
2022-08-03T09:47:02.540Z,28.8
2022-08-03T09:48:02.353Z,28.9
2022-08-03T09:49:01.377Z,29
2022-08-03T09:50:01.236Z,29
2022-08-03T09:51:14.364Z,29.1
2022-08-03T09:52:32.008Z,29.1
2022-08-03T09:53:01.335Z,29.1
2022-08-03T09:54:01.147Z,29.1
2022-08-03T09:55:02.444Z,29.1
2022-08-03T09:56:33.435Z,29
2022-08-03T09:57:01.664Z,29
2022-08-03T09:58:01.995Z,29
2022-08-03T09:59:02.091Z,29
2022-08-03T10:00:06.179Z,29
2022-08-03T10:01:01.063Z,29
2022-08-03T10:02:01.289Z,28.9
2022-08-03T10:03:00.995Z,28.9
2022-08-03T10:04:03.933Z,28.9
2022-08-03T10:05:00.671Z,28.9
2022-08-03T10:06:00.376Z,28.8
2022-08-03T10:07:00.071Z,28.8
2022-08-03T10:07:59.770Z,28.8
2022-08-03T10:09:02.843Z,28.8
2022-08-03T10:10:30.255Z,28.8
2022-08-03T10:11:02.269Z,28.8
2022-08-03T10:12:01.440Z,28.8
2022-08-03T10:13:01.049Z,28.8
2022-08-03T10:14:01.544Z,28.8
2022-08-03T10:15:00.751Z,28.8
2022-08-03T10:16:21.971Z,28.8
2022-08-03T10:17:01.265Z,28.8
2022-08-03T10:18:01.205Z,28.9
2022-08-03T10:19:00.925Z,29
2022-08-03T10:20:00.686Z,29
2022-08-03T10:21:00.466Z,29
2022-08-03T10:22:00.125Z,29
2022-08-03T10:22:59.826Z,29
2022-08-03T10:24:01.528Z,29.1
2022-08-03T10:25:01.212Z,29.3
2022-08-03T10:26:01.768Z,29.3
2022-08-03T10:27:01.128Z,29.3
2022-08-03T10:28:00.786Z,29.5
2022-08-03T10:29:00.727Z,29.5
2022-08-03T10:30:00.368Z,29.5
2022-08-03T10:31:00.262Z,29.5
2022-08-03T10:32:00.031Z,29.5
2022-08-03T10:32:59.689Z,29.5
2022-08-03T10:34:01.353Z,29.4
2022-08-03T10:35:04.073Z,29.4
2022-08-03T10:36:01.363Z,29.5
2022-08-03T10:37:00.776Z,29.5
2022-08-03T10:38:00.477Z,29.5
2022-08-03T10:39:00.199Z,29.5
2022-08-03T10:39:59.879Z,29.5
2022-08-03T10:40:59.683Z,29.5
2022-08-03T10:42:02.595Z,29.5
2022-08-03T10:43:01.437Z,29.5
2022-08-03T10:44:00.724Z,29.5
2022-08-03T10:45:00.334Z,29.5
2022-08-03T10:46:00.101Z,29.5
2022-08-03T10:46:59.828Z,29.5
2022-08-03T10:48:01.571Z,29.5
2022-08-03T10:49:01.413Z,29.5
2022-08-03T10:50:01.190Z,29.5
2022-08-03T10:51:01.083Z,29.5
2022-08-03T10:52:00.777Z,29.5
2022-08-03T10:53:02.057Z,29.6
2022-08-03T10:54:01.806Z,29.6
2022-08-03T10:55:00.663Z,29.6
2022-08-03T10:56:00.902Z,29.7
2022-08-03T10:57:09.525Z,29.7
2022-08-03T10:58:01.224Z,29.7
2022-08-03T10:59:00.937Z,29.6
2022-08-03T11:00:01.849Z,29.6
2022-08-03T11:01:00.945Z,29.6
2022-08-03T11:02:04.512Z,29.6
2022-08-03T11:03:02.403Z,29.7
2022-08-03T11:04:03.072Z,29.7
2022-08-03T11:05:01.372Z,29.8
2022-08-03T11:06:01.185Z,29.8
2022-08-03T11:07:08.290Z,29.8
2022-08-03T11:08:01.560Z,29.9
2022-08-03T11:09:01.030Z,29.9
2022-08-03T11:10:01.304Z,29.9
2022-08-03T11:11:00.798Z,29.8
2022-08-03T11:12:09.364Z,29.8
2022-08-03T11:13:01.558Z,29.9
2022-08-03T11:14:01.156Z,29.9
2022-08-03T11:15:01.158Z,29.9
2022-08-03T11:16:02.244Z,29.8
2022-08-03T11:17:14.412Z,29.8
2022-08-03T11:18:02.422Z,29.8
2022-08-03T11:19:02.785Z,29.8
2022-08-03T11:20:02.179Z,29.9
2022-08-03T11:21:01.621Z,30
2022-08-03T11:22:12.793Z,30
2022-08-03T11:23:01.389Z,30
2022-08-03T11:24:04.020Z,30
2022-08-03T11:25:01.097Z,30
2022-08-03T11:26:00.801Z,30
2022-08-03T11:27:05.559Z,30.1
2022-08-03T11:28:02.942Z,30
2022-08-03T11:29:00.629Z,30
2022-08-03T11:30:00.435Z,30
2022-08-03T11:31:00.312Z,30
2022-08-03T11:32:00.120Z,30.1
2022-08-03T11:32:59.822Z,30.1
2022-08-03T11:34:02.894Z,30.1
2022-08-03T11:35:01.498Z,30.1
2022-08-03T11:36:00.667Z,30.1
2022-08-03T11:37:00.360Z,30.1
2022-08-03T11:38:04.314Z,30.1
2022-08-03T11:39:01.205Z,30.1
2022-08-03T11:40:02.826Z,30.1
2022-08-03T11:41:01.026Z,30.1
2022-08-03T11:42:00.600Z,30.1
2022-08-03T11:43:00.243Z,30.2
2022-08-03T11:43:59.906Z,30.2
2022-08-03T11:44:59.901Z,30.2
2022-08-03T11:45:59.572Z,30.2
2022-08-03T11:47:01.511Z,30.2
2022-08-03T11:48:01.245Z,30.2
2022-08-03T11:49:00.999Z,30.2
2022-08-03T11:50:00.788Z,30.3
2022-08-03T11:51:00.551Z,30.3
2022-08-03T11:52:00.498Z,30.3
2022-08-03T11:53:00.177Z,30.3
2022-08-03T11:53:59.870Z,30.3
2022-08-03T11:54:59.514Z,30.3
2022-08-03T11:56:01.162Z,30.3
2022-08-03T11:57:00.905Z,30.3
2022-08-03T11:59:01.718Z,30.3
2022-08-03T11:59:20.787Z,30.4
2022-08-03T12:00:00.793Z,30.4
2022-08-03T12:01:00.608Z,30.4
2022-08-03T12:02:00.323Z,30.4
2022-08-03T12:03:00.112Z,30.4
2022-08-03T12:03:59.830Z,30.4
2022-08-03T12:05:02.256Z,30.4
2022-08-03T12:06:00.766Z,30.3
2022-08-03T12:07:00.605Z,30.3
2022-08-03T12:08:03.061Z,30.3
2022-08-03T12:09:01.403Z,30.3
2022-08-03T12:10:01.044Z,30.3
2022-08-03T12:11:00.798Z,30.4
2022-08-03T12:12:01.379Z,30.5
2022-08-03T12:13:01.186Z,30.6
2022-08-03T12:14:49.416Z,30.6
2022-08-03T12:15:00.837Z,30.7
2022-08-03T12:16:00.514Z,30.8
2022-08-03T12:17:00.168Z,30.8
2022-08-03T12:17:59.785Z,30.8
2022-08-03T12:19:02.842Z,30.8
2022-08-03T12:20:01.482Z,30.9
2022-08-03T12:21:01.230Z,30.9
2022-08-03T12:22:00.986Z,30.8
2022-08-03T12:23:00.670Z,30.8
2022-08-03T12:24:00.754Z,30.8
2022-08-03T12:25:00.540Z,30.9
2022-08-03T12:26:00.191Z,30.9
2022-08-03T12:27:01.002Z,31
2022-08-03T12:28:00.797Z,31
2022-08-03T12:29:00.472Z,31
2022-08-03T12:30:00.270Z,31
2022-08-03T12:31:00.017Z,31
2022-08-03T12:31:59.701Z,31
2022-08-03T12:33:01.348Z,31
2022-08-03T12:34:00.635Z,31
2022-08-03T12:35:00.589Z,31
2022-08-03T12:36:00.660Z,31
2022-08-03T12:37:00.381Z,31
2022-08-03T12:38:00.175Z,31
2022-08-03T12:38:59.982Z,31.1
2022-08-03T12:40:02.660Z,31.1
2022-08-03T12:41:00.888Z,31.2
2022-08-03T12:42:00.862Z,31.1
2022-08-03T12:43:00.596Z,31.1
2022-08-03T12:44:00.310Z,31.1
2022-08-03T12:45:00.011Z,31.1
2022-08-03T12:45:59.794Z,31.1
2022-08-03T12:47:02.795Z,31.1
2022-08-03T12:48:01.476Z,31.1
2022-08-03T12:49:01.285Z,31.1
2022-08-03T12:50:01.198Z,31.1
2022-08-03T12:51:00.913Z,31.1
2022-08-03T12:52:04.057Z,31.1
2022-08-03T12:53:00.655Z,31.1
2022-08-03T12:54:01.210Z,31.1
2022-08-03T12:55:00.909Z,31
2022-08-03T12:56:05.604Z,31
2022-08-03T12:57:01.440Z,31
2022-08-03T12:58:01.020Z,31
2022-08-03T12:59:00.725Z,31
2022-08-03T13:00:00.398Z,31
2022-08-03T13:01:01.696Z,31
2022-08-03T13:02:00.972Z,31.1
2022-08-03T13:03:38.252Z,31
2022-08-03T13:04:01.283Z,31
2022-08-03T13:05:01.037Z,31
2022-08-03T13:06:00.747Z,30.9
2022-08-03T13:07:02.488Z,31
2022-08-03T13:08:05.113Z,30.9
2022-08-03T13:09:00.979Z,30.9
2022-08-03T13:10:04.915Z,30.9
2022-08-03T13:11:00.778Z,30.8
2022-08-03T13:12:02.501Z,30.9
2022-08-03T13:13:06.384Z,31
2022-08-03T13:14:00.686Z,31
2022-08-03T13:15:00.333Z,31
2022-08-03T13:15:59.989Z,31.1
2022-08-03T13:16:59.794Z,31.1
2022-08-03T13:18:10.721Z,31.1
2022-08-03T13:19:00.733Z,31.1
2022-08-03T13:20:00.428Z,31.2
2022-08-03T13:21:00.130Z,31.2
2022-08-03T13:22:04.059Z,31.2
2022-08-03T13:23:22.158Z,31.1
2022-08-03T13:24:01.292Z,31.1
2022-08-03T13:25:00.975Z,31.1
2022-08-03T13:26:00.675Z,31.2